Schulter, OK

3:23 AM CST on February 21, 2017 (GMT -0600)
cbritt7 wx station | | Change Station
Active Advisory: Dense Fog Advisory

Elev 0 ft 35.47 °N, 95.92 °W | Updated 1 second ago

Fog
Fog
45.7 °F
Feels Like 46 °F
N
0.0
Wind Variable Wind from SE
Gusts 0.0 mph

Today
High -- | Low -- °F
--% Chance of Precip.
Yesterday
High -- | Low -- °F
Precip. -- in
Pressure 29.90 in
Visibility 0.8 miles
Clouds Overcast 200 ft
Windchill 46 °F
Dew Point 45 °F
Humidity 99%
Rainfall 0.00 in
Snow Depth Not available.
7:03 AM 6:12 PM
Waning Crescent, 27% visible
METAR KOKM 210915Z AUTO 00000KT 3/4SM BR OVC002 06/06 A2990 RMK AO2 T00610061
Pressure 29.90 in
Visibility 0.8 miles
Clouds Overcast 200 ft
Windchill 46 °F
Dew Point 45 °F
Humidity 99%
Rainfall 0.00 in
Snow Depth Not available.
7:03 AM 6:12 PM
Waning Crescent, 27% visible
METAR KOKM 210915Z AUTO 00000KT 3/4SM BR OVC002 06/06 A2990 RMK AO2 T00610061

Get Your Daily Forecast Email!

Thanks for signing up!

Be on the lookout for a verification email in your inbox.

You'll start receiving the daily forecast at 8 AM.

×

10-Day Weather Forecast

Almanac

Astronomy

Feb. 21, 2017 Rise Set
Actual Time
Civil Twilight
Nautical Twilight
Astronomical Twilight
Moon
Length of Visible Light
Length of Day
Tomorrow will be .
, % of the Moon is Illuminated

Today's Extremes

State Highs State Lows

Community

WunderPhotos

Upload Photos

1,962,540 photos uploaded!

WunderBlog® & News

Nearby

Air Quality

  Air Quality AQ Index Pollutant
Not available.

Snow Depth

Station Depth Elevation

Earthquake Activity

City Distance Mag. Time & Date
Minimum magnitude displayed is 2.5.

Coastal Water Temperatures

Place Temperature

Stations

Nearby Weather Stations

Station Location Temp. Windchill Dew Point Humidity Wind Precip. Elev Updated Type
                   

Watches & Warnings

Dense Fog Advisory
Issued: 2:52 AM CST Feb. 21, 2017 – National Weather Service

... Dense fog advisory remains in effect until 10 am CST this
morning...

* visibility... areas below one quarter mile at times.

* Impacts... areas of dense fog will reduce visibilities through
mid Tuesday morning.

Precautionary/preparedness actions...

If driving, slow down, use your low beam headlights, and leave
plenty of distance ahead of you.



Lacy